sensor_id;sensor_type;location;lat;lon;timestamp;pressure;altitude;pressure_sealevel;temperature;humidity
42887;BME280;29032;56.028;92.904;2023-04-06T00:00:24;100032.69;;;2.28;34.72
42887;BME280;29032;56.028;92.904;2023-04-06T00:05:27;100018.97;;;2.28;34.61
42887;BME280;29032;56.028;92.904;2023-04-06T00:10:48;100014.94;;;2.42;34.32
42887;BME280;29032;56.028;92.904;2023-04-06T00:15:50;100005.13;;;2.63;34.04
42887;BME280;29032;56.028;92.904;2023-04-06T00:20:54;100006.72;;;2.91;33.22
42887;BME280;29032;56.028;92.904;2023-04-06T00:26:15;100000.63;;;3.14;33.36
42887;BME280;29032;56.028;92.904;2023-04-06T00:31:21;99990.28;;;3.28;32.72
42887;BME280;29032;56.028;92.904;2023-04-06T00:36:25;99989.22;;;3.34;32.12
42887;BME280;29032;56.028;92.904;2023-04-06T00:41:29;99975.53;;;3.25;32.17
42887;BME280;29032;56.028;92.904;2023-04-06T00:46:50;99975.19;;;3.14;32.36
42887;BME280;29032;56.028;92.904;2023-04-06T00:51:54;99981.44;;;3.14;31.69
42887;BME280;29032;56.028;92.904;2023-04-06T00:57:16;99982.38;;;3.11;32.43
42887;BME280;29032;56.028;92.904;2023-04-06T01:02:20;99961.66;;;3.10;31.66
42887;BME280;29032;56.028;92.904;2023-04-06T01:07:27;99960.13;;;3.09;31.80
42887;BME280;29032;56.028;92.904;2023-04-06T01:18:26;99948.25;;;3.03;32.22
42887;BME280;29032;56.028;92.904;2023-04-06T01:23:38;99948.25;;;3.12;31.44
42887;BME280;29032;56.028;92.904;2023-04-06T01:29:00;99933.59;;;3.16;30.78
42887;BME280;29032;56.028;92.904;2023-04-06T01:40:04;99915.00;;;3.47;29.63
42887;BME280;29032;56.028;92.904;2023-04-06T01:45:21;99915.13;;;3.44;29.62
42887;BME280;29032;56.028;92.904;2023-04-06T01:56:09;99904.75;;;3.66;29.02
42887;BME280;29032;56.028;92.904;2023-04-06T02:01:31;99892.22;;;3.65;28.71
42887;BME280;29032;56.028;92.904;2023-04-06T02:06:53;99901.78;;;3.79;28.73
42887;BME280;29032;56.028;92.904;2023-04-06T02:12:00;99882.56;;;3.88;28.53
42887;BME280;29032;56.028;92.904;2023-04-06T02:17:22;99882.94;;;4.05;27.96
42887;BME280;29032;56.028;92.904;2023-04-06T02:22:44;99870.38;;;4.13;28.55
42887;BME280;29032;56.028;92.904;2023-04-06T02:28:07;99845.84;;;4.33;28.49
42887;BME280;29032;56.028;92.904;2023-04-06T02:33:29;99848.72;;;4.39;28.14
42887;BME280;29032;56.028;92.904;2023-04-06T02:38:51;99838.72;;;4.50;28.01
42887;BME280;29032;56.028;92.904;2023-04-06T02:44:33;99834.31;;;4.68;28.24
42887;BME280;29032;56.028;92.904;2023-04-06T02:49:35;99822.81;;;4.69;27.54
42887;BME280;29032;56.028;92.904;2023-04-06T02:54:37;99830.66;;;4.86;27.07
42887;BME280;29032;56.028;92.904;2023-04-06T02:59:41;99833.06;;;4.93;27.00
42887;BME280;29032;56.028;92.904;2023-04-06T03:05:04;99826.72;;;5.01;26.97
42887;BME280;29032;56.028;92.904;2023-04-06T03:10:25;99813.06;;;5.22;26.60
42887;BME280;29032;56.028;92.904;2023-04-06T03:15:48;99799.03;;;5.35;27.08
42887;BME280;29032;56.028;92.904;2023-04-06T03:26:22;99781.41;;;5.61;26.98
42887;BME280;29032;56.028;92.904;2023-04-06T03:31:28;99773.00;;;5.85;26.74
42887;BME280;29032;56.028;92.904;2023-04-06T03:36:51;99775.53;;;5.89;26.43
42887;BME280;29032;56.028;92.904;2023-04-06T03:41:53;99768.38;;;5.97;26.32
42887;BME280;29032;56.028;92.904;2023-04-06T03:47:34;99750.97;;;6.26;26.91
42887;BME280;29032;56.028;92.904;2023-04-06T03:52:59;99747.66;;;6.42;27.28
42887;BME280;29032;56.028;92.904;2023-04-06T03:58:20;99733.31;;;6.38;26.23
42887;BME280;29032;56.028;92.904;2023-04-06T04:03:24;99723.50;;;6.58;26.00
42887;BME280;29032;56.028;92.904;2023-04-06T04:08:46;99724.38;;;6.69;26.03
42887;BME280;29032;56.028;92.904;2023-04-06T04:13:48;99716.94;;;6.81;26.39
42887;BME280;29032;56.028;92.904;2023-04-06T04:19:11;99713.28;;;6.95;26.00
42887;BME280;29032;56.028;92.904;2023-04-06T04:29:53;99695.84;;;7.10;25.69
42887;BME280;29032;56.028;92.904;2023-04-06T04:34:58;99691.41;;;7.18;25.67
42887;BME280;29032;56.028;92.904;2023-04-06T04:45:43;99680.44;;;7.29;25.91
42887;BME280;29032;56.028;92.904;2023-04-06T04:51:07;99674.56;;;7.47;26.57
42887;BME280;29032;56.028;92.904;2023-04-06T04:56:29;99663.09;;;7.60;26.35
42887;BME280;29032;56.028;92.904;2023-04-06T05:01:40;99655.13;;;7.79;26.58
42887;BME280;29032;56.028;92.904;2023-04-06T05:07:06;99647.19;;;8.03;26.81
42887;BME280;29032;56.028;92.904;2023-04-06T05:12:10;99648.47;;;8.19;26.36
42887;BME280;29032;56.028;92.904;2023-04-06T05:17:22;99643.47;;;8.29;25.80
42887;BME280;29032;56.028;92.904;2023-04-06T05:22:45;99633.94;;;8.47;26.45
42887;BME280;29032;56.028;92.904;2023-04-06T05:27:47;99625.88;;;8.49;25.36
42887;BME280;29032;56.028;92.904;2023-04-06T05:33:09;99624.88;;;8.63;25.97
42887;BME280;29032;56.028;92.904;2023-04-06T05:38:33;99602.00;;;8.90;25.34
42887;BME280;29032;56.028;92.904;2023-04-06T05:49:03;99582.78;;;9.21;26.11
42887;BME280;29032;56.028;92.904;2023-04-06T05:54:10;99576.00;;;9.38;26.24
42887;BME280;29032;56.028;92.904;2023-04-06T06:04:34;99549.69;;;9.62;25.42
42887;BME280;29032;56.028;92.904;2023-04-06T06:15:04;99527.19;;;9.77;26.51
42887;BME280;29032;56.028;92.904;2023-04-06T06:20:12;99535.41;;;9.93;25.26
42887;BME280;29032;56.028;92.904;2023-04-06T06:25:17;99527.91;;;10.18;25.27
42887;BME280;29032;56.028;92.904;2023-04-06T06:30:21;99514.50;;;10.28;24.82
42887;BME280;29032;56.028;92.904;2023-04-06T06:36:01;99517.59;;;10.49;25.29
42887;BME280;29032;56.028;92.904;2023-04-06T06:41:22;99506.84;;;10.64;24.85
42887;BME280;29032;56.028;92.904;2023-04-06T06:46:43;99486.78;;;10.52;24.35
42887;BME280;29032;56.028;92.904;2023-04-06T06:51:45;99485.22;;;10.57;23.74
42887;BME280;29032;56.028;92.904;2023-04-06T06:56:49;99483.59;;;10.67;23.86
42887;BME280;29032;56.028;92.904;2023-04-06T07:02:10;99476.63;;;10.85;24.25
42887;BME280;29032;56.028;92.904;2023-04-06T07:13:14;99442.59;;;11.22;22.76
42887;BME280;29032;56.028;92.904;2023-04-06T07:18:36;99417.22;;;11.31;23.07
42887;BME280;29032;56.028;92.904;2023-04-06T07:23:57;99420.19;;;11.52;23.50
42887;BME280;29032;56.028;92.904;2023-04-06T07:29:20;99410.81;;;11.55;23.04
42887;BME280;29032;56.028;92.904;2023-04-06T07:40:01;99384.97;;;11.60;22.42
42887;BME280;29032;56.028;92.904;2023-04-06T07:45:07;99374.38;;;11.59;22.86
42887;BME280;29032;56.028;92.904;2023-04-06T07:55:53;99354.66;;;11.76;23.13
42887;BME280;29032;56.028;92.904;2023-04-06T08:00:57;99344.94;;;11.96;22.26
42887;BME280;29032;56.028;92.904;2023-04-06T08:05:59;99335.56;;;11.99;22.02
42887;BME280;29032;56.028;92.904;2023-04-06T08:17:00;99320.06;;;12.30;21.08
42887;BME280;29032;56.028;92.904;2023-04-06T08:27:22;99305.59;;;12.44;22.19
42887;BME280;29032;56.028;92.904;2023-04-06T08:32:26;99304.09;;;12.57;21.41
42887;BME280;29032;56.028;92.904;2023-04-06T08:37:47;99283.53;;;12.60;21.09
42887;BME280;29032;56.028;92.904;2023-04-06T08:48:12;99277.72;;;12.71;21.31
42887;BME280;29032;56.028;92.904;2023-04-06T08:53:14;99265.94;;;12.78;21.66
42887;BME280;29032;56.028;92.904;2023-04-06T08:58:17;99251.97;;;12.91;21.38
42887;BME280;29032;56.028;92.904;2023-04-06T09:03:21;99238.59;;;13.11;21.37
42887;BME280;29032;56.028;92.904;2023-04-06T09:08:24;99233.34;;;13.28;20.58
42887;BME280;29032;56.028;92.904;2023-04-06T09:13:44;99234.09;;;13.49;20.92
42887;BME280;29032;56.028;92.904;2023-04-06T09:19:06;99228.81;;;13.59;21.20
42887;BME280;29032;56.028;92.904;2023-04-06T09:24:26;99219.94;;;13.68;21.02
42887;BME280;29032;56.028;92.904;2023-04-06T09:29:28;99224.56;;;13.94;20.40
42887;BME280;29032;56.028;92.904;2023-04-06T09:34:32;99206.78;;;14.13;20.42
42887;BME280;29032;56.028;92.904;2023-04-06T09:39:34;99205.75;;;14.31;20.59
42887;BME280;29032;56.028;92.904;2023-04-06T09:44:54;99198.84;;;14.76;20.07
42887;BME280;29032;56.028;92.904;2023-04-06T09:55:23;99186.94;;;15.59;19.24
42887;BME280;29032;56.028;92.904;2023-04-06T10:11:15;99155.16;;;15.95;18.62
42887;BME280;29032;56.028;92.904;2023-04-06T10:16:36;99148.56;;;14.99;19.90
42887;BME280;29032;56.028;92.904;2023-04-06T10:27:28;99135.88;;;13.64;20.84
42887;BME280;29032;56.028;92.904;2023-04-06T10:32:34;99137.44;;;13.23;21.37
42887;BME280;29032;56.028;92.904;2023-04-06T10:37:52;99136.28;;;13.11;21.54
42887;BME280;29032;56.028;92.904;2023-04-06T10:48:52;99121.63;;;12.69;21.15
42887;BME280;29032;56.028;92.904;2023-04-06T10:53:57;99107.97;;;12.58;22.10
42887;BME280;29032;56.028;92.904;2023-04-06T10:59:00;99108.25;;;12.46;21.45
42887;BME280;29032;56.028;92.904;2023-04-06T11:04:02;99092.97;;;12.40;21.77
42887;BME280;29032;56.028;92.904;2023-04-06T11:09:24;99088.59;;;12.52;21.52
42887;BME280;29032;56.028;92.904;2023-04-06T11:14:27;99070.84;;;12.34;21.24
42887;BME280;29032;56.028;92.904;2023-04-06T11:19:47;99065.88;;;12.40;22.10
42887;BME280;29032;56.028;92.904;2023-04-06T11:25:09;99073.22;;;12.51;22.13
42887;BME280;29032;56.028;92.904;2023-04-06T11:30:11;99050.69;;;12.41;21.56
42887;BME280;29032;56.028;92.904;2023-04-06T11:35:32;99044.16;;;12.39;21.79
42887;BME280;29032;56.028;92.904;2023-04-06T11:40:36;99042.13;;;12.39;23.25
42887;BME280;29032;56.028;92.904;2023-04-06T11:45:42;99034.38;;;12.45;22.16
42887;BME280;29032;56.028;92.904;2023-04-06T11:56:08;99024.22;;;12.27;21.60
42887;BME280;29032;56.028;92.904;2023-04-06T12:01:10;99012.56;;;12.15;21.69
42887;BME280;29032;56.028;92.904;2023-04-06T12:06:12;99000.31;;;12.11;21.86
42887;BME280;29032;56.028;92.904;2023-04-06T12:11:16;98994.13;;;12.05;21.61
42887;BME280;29032;56.028;92.904;2023-04-06T12:16:18;98988.94;;;11.88;22.54
42887;BME280;29032;56.028;92.904;2023-04-06T12:26:44;98973.91;;;11.83;22.75
42887;BME280;29032;56.028;92.904;2023-04-06T12:32:04;98963.72;;;11.86;22.76
42887;BME280;29032;56.028;92.904;2023-04-06T12:37:25;98949.59;;;11.63;22.50
42887;BME280;29032;56.028;92.904;2023-04-06T12:42:28;98952.03;;;11.67;22.20
42887;BME280;29032;56.028;92.904;2023-04-06T12:47:48;98943.00;;;11.53;22.79
42887;BME280;29032;56.028;92.904;2023-04-06T12:52:50;98937.03;;;11.49;22.63
42887;BME280;29032;56.028;92.904;2023-04-06T12:57:54;98924.81;;;11.52;22.57
42887;BME280;29032;56.028;92.904;2023-04-06T13:03:14;98913.84;;;11.46;22.77
42887;BME280;29032;56.028;92.904;2023-04-06T13:08:35;98918.72;;;11.53;22.25
42887;BME280;29032;56.028;92.904;2023-04-06T13:13:57;98912.69;;;11.42;22.31
42887;BME280;29032;56.028;92.904;2023-04-06T13:19:17;98903.09;;;11.29;23.11
42887;BME280;29032;56.028;92.904;2023-04-06T13:24:38;98897.28;;;11.06;22.51
42887;BME280;29032;56.028;92.904;2023-04-06T13:29:59;98890.00;;;11.17;22.54
42887;BME280;29032;56.028;92.904;2023-04-06T13:35:20;98887.34;;;11.11;23.21
42887;BME280;29032;56.028;92.904;2023-04-06T13:51:22;98865.94;;;10.85;22.46
42887;BME280;29032;56.028;92.904;2023-04-06T13:56:24;98850.66;;;10.78;22.75
42887;BME280;29032;56.028;92.904;2023-04-06T14:01:47;98858.03;;;10.89;22.74
42887;BME280;29032;56.028;92.904;2023-04-06T14:06:49;98845.03;;;10.71;22.65
42887;BME280;29032;56.028;92.904;2023-04-06T14:11:51;98844.47;;;10.72;22.87
42887;BME280;29032;56.028;92.904;2023-04-06T14:16:55;98838.72;;;10.70;22.46
42887;BME280;29032;56.028;92.904;2023-04-06T14:21:57;98839.16;;;10.61;22.61
42887;BME280;29032;56.028;92.904;2023-04-06T14:27:17;98839.13;;;10.74;22.62
42887;BME280;29032;56.028;92.904;2023-04-06T14:37:41;98838.94;;;10.59;22.80
42887;BME280;29032;56.028;92.904;2023-04-06T14:42:43;98826.75;;;10.62;22.71
42887;BME280;29032;56.028;92.904;2023-04-06T14:47:47;98829.44;;;10.68;22.58
42887;BME280;29032;56.028;92.904;2023-04-06T14:58:28;98819.19;;;10.63;22.83
42887;BME280;29032;56.028;92.904;2023-04-06T15:03:31;98825.91;;;10.67;22.97
42887;BME280;29032;56.028;92.904;2023-04-06T15:08:33;98817.59;;;10.67;22.77
42887;BME280;29032;56.028;92.904;2023-04-06T15:13:36;98807.66;;;10.72;22.87
42887;BME280;29032;56.028;92.904;2023-04-06T15:18:39;98803.25;;;10.76;22.79
42887;BME280;29032;56.028;92.904;2023-04-06T15:23:41;98793.16;;;10.66;22.95
42887;BME280;29032;56.028;92.904;2023-04-06T15:28:43;98793.91;;;10.66;22.91
42887;BME280;29032;56.028;92.904;2023-04-06T15:34:05;98791.09;;;10.79;23.22
42887;BME280;29032;56.028;92.904;2023-04-06T15:44:27;98773.09;;;10.60;23.46
42887;BME280;29032;56.028;92.904;2023-04-06T15:49:31;98767.88;;;10.56;23.30
42887;BME280;29032;56.028;92.904;2023-04-06T15:54:51;98763.56;;;10.68;23.26
42887;BME280;29032;56.028;92.904;2023-04-06T15:59:54;98764.16;;;10.53;23.43
42887;BME280;29032;56.028;92.904;2023-04-06T16:04:58;98762.34;;;10.56;23.40
42887;BME280;29032;56.028;92.904;2023-04-06T16:10:00;98750.81;;;10.52;23.45
42887;BME280;29032;56.028;92.904;2023-04-06T16:15:03;98753.78;;;10.54;23.27
42887;BME280;29032;56.028;92.904;2023-04-06T16:20:25;98753.66;;;10.73;24.49
42887;BME280;29032;56.028;92.904;2023-04-06T16:25:28;98755.88;;;10.74;23.25
42887;BME280;29032;56.028;92.904;2023-04-06T16:30:30;98742.19;;;10.76;22.99
42887;BME280;29032;56.028;92.904;2023-04-06T16:35:52;98744.34;;;10.83;22.81
42887;BME280;29032;56.028;92.904;2023-04-06T16:40:59;98740.50;;;10.87;22.86
42887;BME280;29032;56.028;92.904;2023-04-06T16:46:19;98732.28;;;10.81;22.74
42887;BME280;29032;56.028;92.904;2023-04-06T16:51:23;98734.94;;;10.87;22.47
42887;BME280;29032;56.028;92.904;2023-04-06T16:56:25;98729.94;;;10.85;22.44
42887;BME280;29032;56.028;92.904;2023-04-06T17:01:28;98725.31;;;10.88;22.70
42887;BME280;29032;56.028;92.904;2023-04-06T17:06:31;98727.34;;;10.87;22.95
42887;BME280;29032;56.028;92.904;2023-04-06T17:11:33;98718.94;;;10.79;22.75
42887;BME280;29032;56.028;92.904;2023-04-06T17:16:36;98712.56;;;10.71;22.73
42887;BME280;29032;56.028;92.904;2023-04-06T17:21:40;98718.63;;;10.70;23.25
42887;BME280;29032;56.028;92.904;2023-04-06T17:26:42;98706.84;;;10.56;23.47
42887;BME280;29032;56.028;92.904;2023-04-06T17:31:44;98697.91;;;10.50;23.32
42887;BME280;29032;56.028;92.904;2023-04-06T17:36:48;98683.41;;;10.44;23.21
42887;BME280;29032;56.028;92.904;2023-04-06T17:42:08;98671.28;;;10.34;23.58
42887;BME280;29032;56.028;92.904;2023-04-06T17:47:10;98661.06;;;10.28;23.84
42887;BME280;29032;56.028;92.904;2023-04-06T17:57:35;98644.47;;;10.15;23.88
42887;BME280;29032;56.028;92.904;2023-04-06T18:02:58;98639.03;;;10.10;23.89
42887;BME280;29032;56.028;92.904;2023-04-06T18:08:01;98633.81;;;10.06;23.92
42887;BME280;29032;56.028;92.904;2023-04-06T18:13:03;98632.13;;;10.03;24.18
42887;BME280;29032;56.028;92.904;2023-04-06T18:18:05;98620.81;;;10.01;23.73
42887;BME280;29032;56.028;92.904;2023-04-06T18:23:09;98621.56;;;10.02;23.88
42887;BME280;29032;56.028;92.904;2023-04-06T18:28:11;98618.47;;;9.92;23.71
42887;BME280;29032;56.028;92.904;2023-04-06T18:33:13;98612.53;;;9.88;23.84
42887;BME280;29032;56.028;92.904;2023-04-06T18:38:17;98615.31;;;9.88;23.74
42887;BME280;29032;56.028;92.904;2023-04-06T18:43:37;98608.03;;;9.98;23.96
42887;BME280;29032;56.028;92.904;2023-04-06T18:48:39;98604.88;;;9.81;23.95
42887;BME280;29032;56.028;92.904;2023-04-06T18:53:42;98603.59;;;9.82;24.12
42887;BME280;29032;56.028;92.904;2023-04-06T18:58:45;98601.91;;;9.79;23.87
42887;BME280;29032;56.028;92.904;2023-04-06T19:03:47;98593.38;;;9.77;23.72
42887;BME280;29032;56.028;92.904;2023-04-06T19:08:50;98598.91;;;9.77;23.59
42887;BME280;29032;56.028;92.904;2023-04-06T19:13:52;98588.16;;;9.73;23.58
42887;BME280;29032;56.028;92.904;2023-04-06T19:18:54;98581.13;;;9.72;23.59
42887;BME280;29032;56.028;92.904;2023-04-06T19:23:58;98576.53;;;9.75;23.49
42887;BME280;29032;56.028;92.904;2023-04-06T19:29:00;98579.63;;;9.71;23.68
42887;BME280;29032;56.028;92.904;2023-04-06T19:34:02;98569.09;;;9.69;23.60
42887;BME280;29032;56.028;92.904;2023-04-06T19:39:05;98566.09;;;9.81;23.94
42887;BME280;29032;56.028;92.904;2023-04-06T19:44:08;98561.47;;;9.83;23.42
42887;BME280;29032;56.028;92.904;2023-04-06T19:49:10;98559.69;;;9.86;23.53
42887;BME280;29032;56.028;92.904;2023-04-06T19:54:13;98560.75;;;9.83;24.47
42887;BME280;29032;56.028;92.904;2023-04-06T20:04:35;98557.53;;;9.31;25.80
42887;BME280;29032;56.028;92.904;2023-04-06T20:09:57;98545.16;;;9.19;25.60
42887;BME280;29032;56.028;92.904;2023-04-06T20:14:59;98538.97;;;9.00;27.46
42887;BME280;29032;56.028;92.904;2023-04-06T20:20:01;98539.50;;;8.85;27.24
42887;BME280;29032;56.028;92.904;2023-04-06T20:25:06;98541.59;;;8.79;26.64
42887;BME280;29032;56.028;92.904;2023-04-06T20:35:55;98531.69;;;8.70;26.01
42887;BME280;29032;56.028;92.904;2023-04-06T20:40:59;98516.28;;;8.61;26.58
42887;BME280;29032;56.028;92.904;2023-04-06T20:46:01;98508.41;;;8.52;26.78
42887;BME280;29032;56.028;92.904;2023-04-06T20:51:03;98511.81;;;8.58;26.12
42887;BME280;29032;56.028;92.904;2023-04-06T20:56:07;98515.19;;;8.64;26.77
42887;BME280;29032;56.028;92.904;2023-04-06T21:01:13;98505.44;;;8.77;25.89
42887;BME280;29032;56.028;92.904;2023-04-06T21:06:15;98512.97;;;8.63;26.31
42887;BME280;29032;56.028;92.904;2023-04-06T21:11:19;98507.13;;;8.67;25.57
42887;BME280;29032;56.028;92.904;2023-04-06T21:16:21;98512.22;;;8.62;26.75
42887;BME280;29032;56.028;92.904;2023-04-06T21:21:23;98499.69;;;8.61;27.21
42887;BME280;29032;56.028;92.904;2023-04-06T21:26:26;98501.91;;;8.63;27.01
42887;BME280;29032;56.028;92.904;2023-04-06T21:31:47;98499.69;;;8.61;25.61
42887;BME280;29032;56.028;92.904;2023-04-06T21:36:49;98501.28;;;8.70;25.73
42887;BME280;29032;56.028;92.904;2023-04-06T21:41:53;98495.22;;;8.72;27.10
42887;BME280;29032;56.028;92.904;2023-04-06T21:52:15;98488.63;;;8.61;27.35
42887;BME280;29032;56.028;92.904;2023-04-06T21:57:36;98494.81;;;8.81;25.70
42887;BME280;29032;56.028;92.904;2023-04-06T22:02:38;98489.56;;;8.64;26.47
42887;BME280;29032;56.028;92.904;2023-04-06T22:07:59;98493.75;;;8.84;27.17
42887;BME280;29032;56.028;92.904;2023-04-06T22:13:02;98490.84;;;8.63;26.44
42887;BME280;29032;56.028;92.904;2023-04-06T22:18:23;98487.16;;;8.74;26.82
42887;BME280;29032;56.028;92.904;2023-04-06T22:23:43;98490.75;;;8.82;26.27
42887;BME280;29032;56.028;92.904;2023-04-06T22:28:46;98489.69;;;8.85;26.69
42887;BME280;29032;56.028;92.904;2023-04-06T22:33:48;98492.25;;;8.83;26.31
42887;BME280;29032;56.028;92.904;2023-04-06T22:38:50;98488.19;;;8.84;25.95
42887;BME280;29032;56.028;92.904;2023-04-06T22:49:32;98488.84;;;9.03;27.35
42887;BME280;29032;56.028;92.904;2023-04-06T22:54:35;98468.84;;;8.71;27.58
42887;BME280;29032;56.028;92.904;2023-04-06T22:59:38;98484.78;;;8.64;28.73
42887;BME280;29032;56.028;92.904;2023-04-06T23:04:40;98488.06;;;8.50;27.04
42887;BME280;29032;56.028;92.904;2023-04-06T23:09:42;98484.16;;;8.58;27.61
42887;BME280;29032;56.028;92.904;2023-04-06T23:14:46;98473.94;;;8.67;28.31
42887;BME280;29032;56.028;92.904;2023-04-06T23:19:48;98475.97;;;8.53;28.41
42887;BME280;29032;56.028;92.904;2023-04-06T23:25:08;98483.28;;;8.50;28.29
42887;BME280;29032;56.028;92.904;2023-04-06T23:30:30;98482.63;;;8.31;27.91
42887;BME280;29032;56.028;92.904;2023-04-06T23:35:32;98474.47;;;8.06;29.50
42887;BME280;29032;56.028;92.904;2023-04-06T23:40:52;98470.66;;;8.23;28.03
42887;BME280;29032;56.028;92.904;2023-04-06T23:45:55;98472.44;;;8.39;27.94
42887;BME280;29032;56.028;92.904;2023-04-06T23:50:57;98468.59;;;8.42;30.39
42887;BME280;29032;56.028;92.904;2023-04-06T23:55:59;98462.78;;;8.59;28.10
